createdAt,value
2022-10-01T00:00:00.011Z,12.03
2022-10-01T00:02:49.365Z,11.10
2022-10-01T00:05:38.699Z,10.73
2022-10-01T00:08:28.642Z,10.97
2022-10-01T00:11:20.884Z,11.00
2022-10-01T00:14:12.027Z,11.20
2022-10-01T00:17:01.352Z,11.97
2022-10-01T00:19:50.777Z,11.60
2022-10-01T00:22:40.174Z,11.37
2022-10-01T00:25:30.465Z,11.20
2022-10-01T00:28:19.819Z,11.20
2022-10-01T00:31:11.624Z,10.90
2022-10-01T00:34:03.777Z,10.80
2022-10-01T00:36:53.085Z,11.10
2022-10-01T00:39:42.465Z,10.90
2022-10-01T00:42:31.828Z,10.80
2022-10-01T00:45:21.346Z,11.83
2022-10-01T00:48:12.049Z,10.90
2022-10-01T00:51:02.157Z,11.03
2022-10-01T00:53:51.618Z,11.50
2022-10-01T00:56:42.141Z,11.10
2022-10-01T00:59:32.536Z,10.80
2022-10-01T01:02:22.093Z,11.33
2022-10-01T01:05:13.630Z,10.93
2022-10-01T01:08:04.352Z,11.27
2022-10-01T01:11:05.485Z,10.90
2022-10-01T01:14:04.059Z,11.10
2022-10-01T01:16:59.778Z,11.70
2022-10-01T01:20:09.563Z,10.83
2022-10-01T01:23:17.952Z,10.70
2022-10-01T01:26:22.173Z,11.20
2022-10-01T01:29:18.230Z,11.13
2022-10-01T01:32:15.007Z,10.83
2022-10-01T01:35:08.675Z,10.80
2022-10-01T01:38:03.221Z,10.80
2022-10-01T01:40:55.853Z,10.93
2022-10-01T01:43:49.210Z,11.80
2022-10-01T01:46:46.592Z,11.50
2022-10-01T01:49:36.481Z,10.80
2022-10-01T01:52:26.032Z,10.60
2022-10-01T01:55:16.049Z,10.50
2022-10-01T01:58:05.773Z,10.87
2022-10-01T02:00:55.248Z,10.70
2022-10-01T02:03:45.885Z,10.70
2022-10-01T02:06:50.334Z,11.23
2022-10-01T02:09:52.224Z,11.30
2022-10-01T02:13:01.892Z,10.53
2022-10-01T02:16:04.507Z,11.37
2022-10-01T02:19:02.401Z,10.93
2022-10-01T02:22:00.546Z,10.53
2022-10-01T02:24:57.769Z,10.47
2022-10-01T02:27:55.930Z,10.20
2022-10-01T02:30:46.183Z,10.07
2022-10-01T02:33:37.408Z,10.67
2022-10-01T02:36:30.957Z,10.57
2022-10-01T02:39:22.071Z,10.40
2022-10-01T02:42:15.331Z,10.13
2022-10-01T02:45:07.561Z,10.03
2022-10-01T02:48:02.622Z,10.40
2022-10-01T02:50:55.390Z,10.70
2022-10-01T02:53:50.554Z,10.40
2022-10-01T02:56:58.786Z,10.13
2022-10-01T02:59:48.184Z,10.20
2022-10-01T03:02:37.821Z,10.00
2022-10-01T03:05:27.438Z,10.27
2022-10-01T03:08:16.852Z,10.23
2022-10-01T03:11:08.601Z,10.20
2022-10-01T03:13:58.318Z,10.20
2022-10-01T03:16:47.626Z,10.40
2022-10-01T03:19:37.037Z,10.67
2022-10-01T03:22:26.340Z,10.13
2022-10-01T03:25:16.055Z,9.90
2022-10-01T03:28:06.842Z,10.40
2022-10-01T03:31:08.088Z,10.03
2022-10-01T03:34:00.470Z,10.07
2022-10-01T03:36:50.234Z,9.80
2022-10-01T03:39:39.950Z,10.60
2022-10-01T03:42:29.283Z,10.20
2022-10-01T03:45:19.926Z,10.37
2022-10-01T03:48:09.249Z,10.20
2022-10-01T03:51:00.645Z,10.20
2022-10-01T03:53:50.060Z,10.40
2022-10-01T03:56:40.890Z,10.30
2022-10-01T03:59:30.186Z,10.70
2022-10-01T04:02:22.109Z,10.60
2022-10-01T04:05:12.366Z,10.13
2022-10-01T04:08:02.337Z,10.20
2022-10-01T04:10:51.887Z,10.50
2022-10-01T04:13:41.177Z,10.30
2022-10-01T04:16:30.579Z,10.33
2022-10-01T04:19:21.445Z,10.50
2022-10-01T04:22:10.748Z,10.57
2022-10-01T04:25:00.065Z,10.40
2022-10-01T04:27:59.662Z,11.30
2022-10-01T04:30:48.949Z,11.10
2022-10-01T04:33:38.312Z,10.30
2022-10-01T04:36:29.150Z,10.50
2022-10-01T04:39:18.455Z,10.70
2022-10-01T04:42:07.802Z,10.80
2022-10-01T04:44:57.401Z,13.50
2022-10-01T04:47:50.620Z,11.90
2022-10-01T04:50:39.913Z,11.23
2022-10-01T04:53:30.606Z,11.30
2022-10-01T04:56:19.933Z,10.80
2022-10-01T04:59:09.234Z,11.10
2022-10-01T05:01:58.578Z,11.00
2022-10-01T05:04:48.165Z,10.77
2022-10-01T05:07:38.199Z,10.70
2022-10-01T05:10:28.911Z,10.70
2022-10-01T05:13:18.294Z,26.03
2022-10-01T05:16:08.082Z,19.97
2022-10-01T05:18:58.358Z,14.23
2022-10-01T05:21:47.628Z,12.47
2022-10-01T05:24:36.957Z,11.77
2022-10-01T05:27:27.627Z,11.10
2022-10-01T05:30:24.205Z,10.40
2022-10-01T05:33:13.725Z,10.93
2022-10-01T05:36:03.986Z,10.70
2022-10-01T05:38:53.259Z,10.53
2022-10-01T05:41:42.587Z,10.53
2022-10-01T05:44:37.969Z,10.53
2022-10-01T05:47:27.303Z,10.60
2022-10-01T05:50:16.958Z,10.80
2022-10-01T05:53:06.901Z,11.03
2022-10-01T05:55:56.218Z,10.40
2022-10-01T05:58:46.822Z,10.30
2022-10-01T06:01:37.574Z,10.33
2022-10-01T06:04:27.160Z,10.50
2022-10-01T06:07:16.461Z,10.53
2022-10-01T06:10:06.969Z,10.40
2022-10-01T06:13:01.846Z,10.80
2022-10-01T06:15:54.210Z,10.77
2022-10-01T06:18:44.894Z,10.30
2022-10-01T06:21:34.541Z,10.50
2022-10-01T06:24:24.062Z,10.67
2022-10-01T06:27:13.401Z,10.40
2022-10-01T06:30:02.707Z,10.70
2022-10-01T06:32:52.012Z,10.30
2022-10-01T06:35:45.534Z,10.93
2022-10-01T06:38:34.850Z,10.60
2022-10-01T06:41:24.925Z,10.73
2022-10-01T06:44:15.140Z,10.60
2022-10-01T06:47:04.462Z,10.70
2022-10-01T06:49:53.787Z,10.93
2022-10-01T06:52:50.029Z,10.63
2022-10-01T06:55:40.019Z,10.40
2022-10-01T06:58:30.179Z,10.57
2022-10-01T07:01:20.973Z,10.30
2022-10-01T07:04:10.324Z,11.17
2022-10-01T07:06:59.657Z,10.50
2022-10-01T07:09:50.328Z,10.60
2022-10-01T07:12:39.829Z,10.70
2022-10-01T07:15:29.559Z,10.40
2022-10-01T07:18:19.062Z,10.20
2022-10-01T07:21:08.851Z,11.07
2022-10-01T07:23:58.111Z,10.43
2022-10-01T07:26:51.063Z,10.20
2022-10-01T07:29:40.443Z,10.10
2022-10-01T07:32:31.648Z,9.90
2022-10-01T07:35:21.437Z,10.67
2022-10-01T07:38:10.846Z,10.30
2022-10-01T07:41:02.518Z,10.40
2022-10-01T07:43:53.177Z,10.50
2022-10-01T07:46:42.483Z,10.20
2022-10-01T07:49:31.772Z,10.40
2022-10-01T07:52:21.316Z,10.40
2022-10-01T07:55:14.030Z,10.17
2022-10-01T07:58:03.400Z,9.97
2022-10-01T08:00:58.525Z,10.40
2022-10-01T08:03:50.070Z,9.80
2022-10-01T08:06:39.910Z,9.97
2022-10-01T08:09:29.237Z,10.30
2022-10-01T08:12:19.716Z,10.13
2022-10-01T08:15:11.313Z,10.70
2022-10-01T08:18:04.426Z,10.13
2022-10-01T08:20:53.801Z,10.20
2022-10-01T08:23:43.119Z,9.90
2022-10-01T08:26:33.069Z,10.10
2022-10-01T08:29:22.475Z,11.13
2022-10-01T08:32:11.839Z,10.40
2022-10-01T08:35:02.614Z,10.20
2022-10-01T08:37:52.317Z,10.13
2022-10-01T08:40:47.225Z,10.23
2022-10-01T08:43:39.677Z,10.30
2022-10-01T08:46:35.086Z,10.27
2022-10-01T08:49:29.623Z,10.40
2022-10-01T08:52:24.602Z,10.20
2022-10-01T08:55:20.700Z,10.90
2022-10-01T08:58:15.012Z,10.37
2022-10-01T09:01:04.847Z,10.40
2022-10-01T09:03:54.971Z,10.30
2022-10-01T09:06:47.347Z,10.30
2022-10-01T09:09:46.743Z,10.60
2022-10-01T09:12:49.497Z,10.37
2022-10-01T09:15:49.847Z,10.40
2022-10-01T09:18:51.163Z,10.50
2022-10-01T09:21:56.183Z,10.13
2022-10-01T09:24:50.689Z,9.83
2022-10-01T09:27:40.684Z,10.10
2022-10-01T09:30:31.424Z,10.07
2022-10-01T09:33:22.064Z,9.77
2022-10-01T09:36:23.251Z,9.70
2022-10-01T09:39:21.785Z,9.60
2022-10-01T09:42:13.257Z,9.80
2022-10-01T09:45:02.618Z,9.90
2022-10-01T09:47:56.465Z,12.10
2022-10-01T09:50:54.616Z,11.37
2022-10-01T09:53:51.601Z,10.70
2022-10-01T09:56:48.071Z,10.10
2022-10-01T09:59:45.146Z,10.40
2022-10-01T10:02:48.179Z,10.23
2022-10-01T10:05:44.347Z,13.27
2022-10-01T10:08:37.693Z,9.77
2022-10-01T10:11:30.310Z,9.73
2022-10-01T10:14:27.134Z,10.00
2022-10-01T10:17:18.208Z,10.07
2022-10-01T10:20:18.906Z,10.10
2022-10-01T10:23:12.769Z,9.80
2022-10-01T10:26:05.999Z,10.67
2022-10-01T10:28:56.327Z,10.60
2022-10-01T10:31:47.013Z,9.83
2022-10-01T10:34:39.732Z,9.70
2022-10-01T10:37:32.612Z,10.00
2022-10-01T10:40:29.235Z,9.40
2022-10-01T10:43:22.961Z,9.50
2022-10-01T10:46:12.587Z,9.40
2022-10-01T10:49:07.454Z,9.53
2022-10-01T10:52:01.060Z,10.07
2022-10-01T10:54:52.238Z,9.80
2022-10-01T10:57:41.606Z,10.03
2022-10-01T11:00:30.990Z,9.70
2022-10-01T11:03:25.046Z,10.10
2022-10-01T11:06:18.535Z,9.43
2022-10-01T11:09:12.285Z,9.40
2022-10-01T11:12:13.038Z,9.57
2022-10-01T11:15:23.015Z,9.60
2022-10-01T11:18:57.678Z,9.50
2022-10-01T11:22:03.385Z,9.33
2022-10-01T11:25:20.997Z,9.43
2022-10-01T11:28:30.908Z,10.47
2022-10-01T11:31:33.447Z,10.50
2022-10-01T11:35:01.867Z,10.20
2022-10-01T11:38:36.243Z,10.20
2022-10-01T11:41:36.399Z,9.60
2022-10-01T11:44:30.841Z,9.30
2022-10-01T11:47:26.066Z,9.50
2022-10-01T11:50:19.605Z,9.60
2022-10-01T11:53:16.754Z,9.47
2022-10-01T11:56:30.032Z,9.40
2022-10-01T11:59:29.637Z,9.60
2022-10-01T12:02:28.293Z,9.40
2022-10-01T12:05:21.359Z,9.63
2022-10-01T12:08:19.972Z,9.53
2022-10-01T12:11:17.922Z,9.40
2022-10-01T12:14:12.760Z,9.40
2022-10-01T12:17:16.483Z,9.70
2022-10-01T12:20:16.784Z,9.20
2022-10-01T12:23:11.359Z,9.00
2022-10-01T12:26:23.003Z,9.37
2022-10-01T12:29:22.398Z,9.20
2022-10-01T12:32:23.650Z,9.40
2022-10-01T12:35:33.446Z,9.20
2022-10-01T12:38:43.081Z,10.00
2022-10-01T12:41:46.933Z,9.10
2022-10-01T12:44:56.549Z,9.20
2022-10-01T12:47:53.078Z,9.37
2022-10-01T12:50:53.084Z,9.20
2022-10-01T12:53:53.613Z,9.40
2022-10-01T12:56:52.173Z,9.40
2022-10-01T13:00:00.899Z,9.30
2022-10-01T13:03:45.979Z,9.60
2022-10-01T13:06:49.604Z,9.60
2022-10-01T13:09:49.108Z,9.50
2022-10-01T13:12:57.989Z,11.33
2022-10-01T13:15:51.581Z,10.27
2022-10-01T13:18:56.747Z,9.70
2022-10-01T13:22:07.872Z,9.57
2022-10-01T13:25:04.450Z,9.43
2022-10-01T13:28:02.111Z,9.50
2022-10-01T13:31:00.531Z,9.40
2022-10-01T13:34:01.111Z,9.30
2022-10-01T13:36:50.885Z,9.60
2022-10-01T13:39:42.164Z,9.13
2022-10-01T13:42:38.815Z,9.50
2022-10-01T13:45:34.299Z,9.30
2022-10-01T13:48:26.533Z,9.37
2022-10-01T13:51:17.697Z,9.20
2022-10-01T13:54:20.670Z,12.40
2022-10-01T13:57:10.985Z,12.07
2022-10-01T14:00:05.516Z,11.00
2022-10-01T14:03:36.206Z,10.03
2022-10-01T14:06:33.258Z,10.07
2022-10-01T14:09:28.935Z,9.90
2022-10-01T14:12:39.919Z,9.10
2022-10-01T14:15:54.714Z,9.17
2022-10-01T14:18:49.526Z,9.00
2022-10-01T14:21:56.762Z,8.90
2022-10-01T14:25:06.557Z,9.07
2022-10-01T14:28:15.050Z,9.20
2022-10-01T14:31:10.783Z,8.90
2022-10-01T14:34:38.490Z,9.03
2022-10-01T14:37:30.830Z,9.00
2022-10-01T14:40:23.419Z,8.90
2022-10-01T14:43:19.597Z,9.90
2022-10-01T14:46:16.891Z,9.53
2022-10-01T14:49:06.228Z,9.60
2022-10-01T14:52:02.615Z,9.10
2022-10-01T14:54:59.845Z,9.33
2022-10-01T14:57:52.522Z,9.17
2022-10-01T15:00:52.388Z,8.90
2022-10-01T15:03:43.613Z,9.00
2022-10-01T15:06:44.081Z,9.13
2022-10-01T15:09:35.508Z,9.27
2022-10-01T15:12:26.189Z,9.20
2022-10-01T15:15:22.176Z,9.43
2022-10-01T15:18:15.897Z,9.40
2022-10-01T15:21:07.825Z,15.63
2022-10-01T15:23:57.960Z,16.80
2022-10-01T15:26:48.438Z,12.30
2022-10-01T15:29:40.898Z,11.70
2022-10-01T15:32:30.423Z,10.27
2022-10-01T15:35:23.825Z,9.87
2022-10-01T15:38:13.741Z,9.33
2022-10-01T15:41:29.935Z,9.13
2022-10-01T15:44:45.564Z,9.03
2022-10-01T15:47:37.438Z,9.40
2022-10-01T15:50:29.567Z,9.63
2022-10-01T15:53:23.032Z,9.30
2022-10-01T15:56:16.361Z,10.03
2022-10-01T15:59:14.294Z,9.57
2022-10-01T16:02:11.210Z,9.70
2022-10-01T16:05:06.353Z,9.90
2022-10-01T16:07:58.542Z,9.73
2022-10-01T16:10:48.101Z,9.43
2022-10-01T16:13:40.160Z,9.47
2022-10-01T16:16:30.911Z,10.17
2022-10-01T16:19:25.182Z,9.50
2022-10-01T16:22:17.181Z,10.97
2022-10-01T16:25:31.894Z,10.40
2022-10-01T16:28:29.196Z,9.80
2022-10-01T16:31:18.609Z,9.60
2022-10-01T16:34:12.990Z,9.63
2022-10-01T16:37:09.314Z,9.60
2022-10-01T16:39:58.607Z,9.57
2022-10-01T16:42:49.420Z,9.47
2022-10-01T16:45:42.776Z,9.77
2022-10-01T16:48:32.114Z,9.90
2022-10-01T16:51:22.565Z,9.40
2022-10-01T16:54:23.077Z,9.40
2022-10-01T16:57:12.634Z,9.40
2022-10-01T17:00:02.565Z,9.30
2022-10-01T17:02:51.883Z,9.20
2022-10-01T17:05:41.665Z,9.80
2022-10-01T17:08:31.206Z,10.17
2022-10-01T17:11:22.562Z,9.90
2022-10-01T17:14:17.439Z,10.00
2022-10-01T17:17:06.805Z,9.50
2022-10-01T17:19:56.122Z,9.60
2022-10-01T17:22:45.438Z,9.17
2022-10-01T17:25:38.240Z,9.10
2022-10-01T17:28:29.110Z,9.47
2022-10-01T17:31:18.633Z,9.47
2022-10-01T17:34:08.623Z,9.33
2022-10-01T17:36:59.847Z,9.50
2022-10-01T17:39:49.137Z,9.50
2022-10-01T17:42:38.599Z,9.30
2022-10-01T17:45:29.342Z,9.10
2022-10-01T17:48:21.765Z,9.73
2022-10-01T17:51:14.367Z,9.50
2022-10-01T17:54:04.644Z,9.70
2022-10-01T17:56:55.824Z,9.47
2022-10-01T17:59:45.119Z,9.93
2022-10-01T18:02:42.170Z,9.87
2022-10-01T18:05:32.519Z,9.47
2022-10-01T18:08:33.227Z,9.57
2022-10-01T18:11:31.697Z,9.50
2022-10-01T18:14:21.101Z,9.80
2022-10-01T18:17:10.489Z,9.40
2022-10-01T18:20:01.525Z,9.50
2022-10-01T18:22:52.044Z,9.50
2022-10-01T18:25:41.482Z,14.40
2022-10-01T18:28:32.590Z,11.10
2022-10-01T18:31:27.341Z,11.60
2022-10-01T18:34:25.686Z,10.80
2022-10-01T18:37:33.962Z,10.00
2022-10-01T18:40:30.663Z,9.90
2022-10-01T18:43:24.784Z,9.77
2022-10-01T18:46:33.001Z,9.63
2022-10-01T18:49:56.182Z,9.90
2022-10-01T18:53:04.790Z,9.10
2022-10-01T18:56:23.937Z,9.60
2022-10-01T18:59:54.096Z,9.53
2022-10-01T19:03:09.769Z,9.67
2022-10-01T19:06:13.436Z,9.60
2022-10-01T19:09:28.438Z,9.20
2022-10-01T19:12:42.266Z,10.10
2022-10-01T19:15:42.005Z,9.53
2022-10-01T19:18:50.659Z,9.40
2022-10-01T19:21:49.303Z,9.80
2022-10-01T19:25:03.221Z,9.60
2022-10-01T19:28:11.854Z,9.40
2022-10-01T19:31:12.616Z,9.30
2022-10-01T19:34:10.295Z,9.50
2022-10-01T19:37:06.367Z,10.00
2022-10-01T19:40:01.628Z,9.87
2022-10-01T19:43:00.477Z,10.37
2022-10-01T19:45:56.334Z,9.90
2022-10-01T19:48:51.887Z,9.80
2022-10-01T19:51:46.869Z,9.90
2022-10-01T19:54:43.247Z,9.80
2022-10-01T19:57:39.076Z,10.10
2022-10-01T20:00:28.675Z,9.83
2022-10-01T20:03:27.417Z,9.87
2022-10-01T20:06:23.285Z,10.37
2022-10-01T20:09:24.396Z,9.57
2022-10-01T20:12:24.760Z,9.60
2022-10-01T20:15:26.789Z,9.50
2022-10-01T20:18:28.234Z,9.90
2022-10-01T20:21:44.021Z,9.70
2022-10-01T20:24:48.188Z,9.23
2022-10-01T20:27:49.524Z,9.80
2022-10-01T20:30:52.117Z,9.63
2022-10-01T20:33:51.707Z,9.70
2022-10-01T20:36:47.756Z,9.60
2022-10-01T20:39:42.158Z,9.50
2022-10-01T20:42:38.482Z,10.00
2022-10-01T20:45:30.157Z,9.50
2022-10-01T20:48:24.601Z,9.60
2022-10-01T20:51:18.674Z,9.67
2022-10-01T20:54:13.069Z,9.20
2022-10-01T20:57:09.863Z,9.50
2022-10-01T21:00:05.703Z,9.53
2022-10-01T21:03:03.326Z,9.57
2022-10-01T21:05:58.306Z,9.37
2022-10-01T21:08:53.582Z,9.40
2022-10-01T21:11:49.113Z,9.90
2022-10-01T21:14:43.177Z,9.53
2022-10-01T21:17:42.114Z,9.73
2022-10-01T21:20:47.006Z,9.37
2022-10-01T21:24:01.187Z,9.23
2022-10-01T21:27:02.188Z,9.30
2022-10-01T21:30:10.073Z,9.87
2022-10-01T21:33:15.227Z,9.73
2022-10-01T21:36:13.411Z,9.37
2022-10-01T21:39:12.389Z,9.40
2022-10-01T21:42:15.635Z,9.50
2022-10-01T21:45:27.183Z,9.10
2022-10-01T21:48:31.978Z,9.37
2022-10-01T21:51:35.592Z,9.57
2022-10-01T21:54:58.977Z,9.70
2022-10-01T21:58:04.940Z,9.20
2022-10-01T22:01:03.298Z,9.60
2022-10-01T22:04:03.076Z,9.53
2022-10-01T22:06:59.179Z,9.83
2022-10-01T22:10:03.639Z,9.77
2022-10-01T22:12:58.737Z,9.40
2022-10-01T22:15:53.084Z,9.70
2022-10-01T22:18:47.484Z,9.30
2022-10-01T22:21:41.421Z,9.90
2022-10-01T22:24:36.759Z,9.50
2022-10-01T22:27:33.377Z,9.33
2022-10-01T22:30:26.237Z,9.30
2022-10-01T22:33:21.767Z,11.10
2022-10-01T22:36:17.182Z,11.57
2022-10-01T22:39:13.816Z,10.90
2022-10-01T22:42:08.586Z,10.60
2022-10-01T22:45:10.179Z,10.30
2022-10-01T22:48:17.940Z,9.80
2022-10-01T22:51:26.694Z,9.93
2022-10-01T22:54:32.487Z,9.23
2022-10-01T22:57:45.268Z,9.30
2022-10-01T23:00:46.059Z,9.40
2022-10-01T23:03:51.405Z,9.93
2022-10-01T23:06:48.065Z,9.43
2022-10-01T23:09:44.784Z,9.37
2022-10-01T23:12:44.218Z,9.67
2022-10-01T23:15:43.856Z,9.60
2022-10-01T23:18:47.454Z,15.23
2022-10-01T23:21:44.349Z,9.70
2022-10-01T23:24:52.774Z,9.80
2022-10-01T23:28:09.738Z,9.50
2022-10-01T23:31:08.317Z,9.60
2022-10-01T23:34:14.313Z,9.33
2022-10-01T23:37:22.006Z,9.73
2022-10-01T23:40:14.626Z,10.00
2022-10-01T23:43:11.485Z,9.47
2022-10-01T23:46:08.633Z,9.27
2022-10-01T23:49:03.115Z,9.67
2022-10-01T23:52:02.317Z,9.40
2022-10-01T23:54:57.261Z,9.50
2022-10-01T23:57:47.582Z,10.00
